Flight Track Log - Related Links

Times and Time Zones

All times are in EDT time to prevent confusion due to time zone crossing. See the UAL4462 flight status page for this flight to view local times or setup timezone preferences in your user account.

Time Position Orientation Groundspeed Altitude Reporting Facility
EDT Latitude Longitude Course Direction KTS MPH feet Rate Location/Type
Wed 08:06:28 AM 40.7333 -74.1333 288° West 167 192 1,900  Level New York TRACON
Wed 08:07:28 AM 40.7500 -74.1667 303° West 233 268 3,700 2,158 Climbing New York TRACON
Wed 08:08:22 AM 40.7667 -74.2667 282° West 275 316 6,000 2,500 Climbing New York TRACON
Wed 08:09:00 AM 40.8085 -74.7199 287° West  Level FlightAware Approximate
Wed 08:09:28 AM 40.8000 -74.3500 298° West 281 323 8,700  Level New York TRACON
Wed 08:10:00 AM 40.8409 -74.8602 287° West  Level FlightAware Approximate
Wed 08:11:00 AM 40.8742 -74.9969 288° West  Level FlightAware Approximate
Wed 08:11:42 AM 40.8853 -74.5889 295° West 338 389 12,400  Level New York Center
Wed 08:12:40 AM 40.9294 -74.7067 296° West 344 396 14,100 1,729 Climbing New York Center
Wed 08:13:40 AM 40.9458 -74.8367 280° West 354 407 15,800 1,537 Climbing New York Center
Wed 08:14:41 AM 40.9347 -74.9736 264° West 370 426 17,200 1,131 Climbing New York Center
Wed 08:15:42 AM 40.9233 -75.1128 264° West 382 440 18,100 1,109 Climbing New York Center
Wed 08:16:40 AM 40.8972 -75.2539 256° West 390 449 19,400 1,311 Climbing New York Center
Wed 08:17:41 AM 40.8689 -75.3947 255° West 395 455 20,700 1,279 Climbing New York Center
Wed 08:18:42 AM 40.8342 -75.5378 252° West 400 460 22,000 1,311 Climbing New York Center
Wed 08:19:40 AM 40.8011 -75.6836 253° West 405 466 23,300 1,160 Climbing New York Center
Wed 08:20:41 AM 40.7708 -75.8075 252° West 405 466 24,300 1,140 Climbing New York Center
Wed 08:21:41 AM 40.7356 -75.9500 252° West 411 473 25,600 1,289 Climbing New York Center
Wed 08:22:42 AM 40.7019 -76.0953 253° West 411 473 26,900 1,311 Climbing New York Center
Wed 08:23:40 AM 40.6686 -76.2322 252° West 406 467 28,200 1,311 Climbing New York Center
Wed 08:24:41 AM 40.6831 -76.3731 278° West 390 449 29,500 1,230 Climbing New York Center
Wed 08:25:42 AM 40.7056 -76.5089 282° West 384 442 30,700 1,240 Climbing New York Center
Wed 08:26:42 AM 40.7242 -76.6419 280° West 384 442 32,000 1,322 Climbing New York Center
Wed 08:27:40 AM 40.7425 -76.7750 280° West 374 430 33,300 1,271 Climbing New York Center
Wed 08:28:40 AM 40.7628 -76.9083 281° West 374 430 34,500 992 Climbing New York Center
Wed 08:29:41 AM 40.7808 -77.0361 281° West 374 430 35,300 639 Climbing New York Center
Wed 08:30:42 AM 40.8011 -77.1642 282° West 369 425 35,800 347 Climbing New York Center
Wed 08:31:42 AM 40.8192 -77.2947 280° West 364 419 36,000 102 Climbing New York Center
Wed 08:32:40 AM 40.8383 -77.4339 280° West 371 427 36,000  Level New York Center
Wed 08:35:09 AM 40.8947 -77.8225 281° West 417 480 36,000  Level Cleveland Center
Wed 08:36:09 AM 40.9128 -77.9617 280° West 430 495 36,000  Level Cleveland Center
Wed 08:37:09 AM 40.9331 -78.1233 279° West 437 503 36,000  Level Cleveland Center
Wed 08:38:09 AM 40.9550 -78.2847 280° West 448 516 36,000  Level Cleveland Center
Wed 08:39:09 AM 40.9747 -78.4433 279° West 448 516 36,000  Level Cleveland Center
Wed 08:40:09 AM 40.9944 -78.6025 279° West 448 516 36,000  Level Cleveland Center
Wed 08:41:09 AM 41.0117 -78.7614 278° West 448 516 36,000  Level Cleveland Center
Wed 08:42:09 AM 41.0308 -78.9206 279° West 448 516 36,000  Level Cleveland Center
Wed 08:43:09 AM 41.0497 -79.0853 279° West 448 516 36,000  Level Cleveland Center
Wed 08:44:09 AM 41.0661 -79.2447 278° West 448 516 36,000  Level Cleveland Center
Wed 08:45:09 AM 41.0847 -79.4042 279° West 448 516 36,000  Level Cleveland Center
Wed 08:46:09 AM 41.1028 -79.5636 279° West 448 516 36,000  Level Cleveland Center
Wed 08:47:09 AM 41.1189 -79.7231 278° West 443 510 36,000  Level Cleveland Center
Wed 08:48:09 AM 41.1386 -79.8856 279° West 443 510 36,000  Level Cleveland Center
Wed 08:49:09 AM 41.1542 -80.0481 277° West 443 510 36,000  Level Cleveland Center
Wed 08:50:10 AM 41.1714 -80.2081 278° West 443 510 36,000  Level Cleveland Center
Wed 08:51:09 AM 41.1906 -80.3900 278° West 448 516 36,000  Level Cleveland Center
Wed 08:52:09 AM 41.2033 -80.5333 277° West 454 522 36,000  Level Cleveland Center
Wed 08:53:09 AM 41.2200 -80.6964 278° West 449 517 36,000  Level Cleveland Center
Wed 08:54:09 AM 41.2364 -80.8564 278° West 444 511 36,000  Level Cleveland Center
Wed 08:55:09 AM 41.2525 -81.0194 278° West 449 517 36,000  Level Cleveland Center
Wed 08:56:10 AM 41.2642 -81.1853 275° West 443 510 36,000  Level Cleveland Center
Wed 08:57:09 AM 41.2736 -81.3456 275° West 443 510 36,000  Level Cleveland Center
Wed 08:58:09 AM 41.2911 -81.5256 277° West 443 510 36,000  Level Cleveland Center
Wed 08:59:10 AM 41.3022 -81.6858 275° West 443 510 36,000  Level Cleveland Center
Wed 09:00:09 AM 41.3108 -81.8519 274° West 443 510 36,000  Level Cleveland Center
Wed 09:01:09 AM 41.3194 -82.0153 274° West 443 510 36,000  Level Cleveland Center
Wed 09:02:09 AM 41.3278 -82.1647 274° West 443 510 36,000  Level Cleveland Center
Wed 09:03:09 AM 41.3381 -82.3281 275° West 449 517 36,000  Level Cleveland Center
Wed 09:04:09 AM 41.3478 -82.4944 275° West 449 517 36,000  Level Cleveland Center
Wed 09:05:09 AM 41.3553 -82.6550 274° West 442 509 36,000  Level Cleveland Center
Wed 09:06:09 AM 41.3647 -82.8242 274° West 447 514 36,000  Level Cleveland Center
Wed 09:07:09 AM 41.3758 -83.0017 275° West 447 514 36,000  Level Cleveland Center
Wed 09:08:10 AM 41.3847 -83.1653 274° West 447 514 36,000  Level Cleveland Center
Wed 09:09:09 AM 41.3911 -83.3289 273° West 447 514 36,000  Level Cleveland Center
Wed 09:10:09 AM 41.3997 -83.4925 274° West 447 514 36,000  Level Cleveland Center
Wed 09:11:09 AM 41.4078 -83.6592 274° West 447 514 36,000  Level Cleveland Center
Wed 09:12:09 AM 41.4158 -83.8256 274° West 447 514 36,000  Level Cleveland Center
Wed 09:13:09 AM 41.4214 -83.9867 273° West 452 520 36,000  Level Cleveland Center
Wed 09:14:43 AM 41.4372 -84.2386 275° West 451 519 36,000  Level Chicago Center
Wed 09:15:45 AM 41.4431 -84.4056 273° West 451 519 36,000  Level Chicago Center
Wed 09:16:47 AM 41.4506 -84.5731 273° West 452 520 36,000  Level Chicago Center
Wed 09:17:49 AM 41.4578 -84.7400 273° West 452 520 36,000  Level Chicago Center
Wed 09:18:51 AM 41.4633 -84.9081 273° West 455 524 36,000  Level Chicago Center
Wed 09:19:53 AM 41.4711 -85.1092 273° West 452 520 36,000  Level Chicago Center
Wed 09:20:54 AM 41.4756 -85.2769 272° West 451 519 36,000  Level Chicago Center
Wed 09:21:56 AM 41.4800 -85.4486 272° West 452 520 36,000  Level Chicago Center
Wed 09:22:58 AM 41.4869 -85.6194 273° West 453 521 36,000  Level Chicago Center
Wed 09:24:00 AM 41.4922 -85.7869 272° West 450 518 36,000  Level Chicago Center
Wed 09:25:02 AM 41.4972 -85.9558 272° West 455 524 36,000  Level Chicago Center
Wed 09:26:04 AM 41.5019 -86.1256 272° West 457 526 36,000  Level Chicago Center
Wed 09:27:06 AM 41.5064 -86.2936 272° West 456 525 36,000  Level Chicago Center
Wed 09:28:08 AM 41.5117 -86.4964 272° West 456 525 36,000  Level Chicago Center
Wed 09:29:11 AM 41.5156 -86.6664 272° West 459 528 36,000  Level Chicago Center
Wed 09:30:13 AM 41.5175 -86.8281 271° West 445 512 36,000  Level Chicago Center
Wed 09:31:15 AM 41.5222 -86.9986 272° West 459 528 36,000  Level Chicago Center
Wed 09:32:17 AM 41.5264 -87.1675 272° West 458 527 36,000  Level Chicago Center
Wed 09:33:19 AM 41.5289 -87.3686 271° West 455 524 36,000  Level Chicago Center
Wed 09:34:21 AM 41.5311 -87.5353 271° West 453 521 36,000  Level Chicago Center
Wed 09:35:23 AM 41.5342 -87.7008 271° West 451 519 36,000  Level Chicago Center
Wed 09:36:25 AM 41.5356 -87.8661 271° West 451 519 36,000  Level Chicago Center
Wed 09:37:27 AM 41.5389 -88.0578 271° West 446 513 36,000  Level Chicago Center
Wed 09:38:29 AM 41.5394 -88.2172 270° West 445 512 36,000  Level Chicago Center
Wed 09:39:31 AM 41.5411 -88.3794 271° West 444 511 36,000  Level Chicago Center
Wed 09:40:33 AM 41.5414 -88.5400 270° West 439 505 36,000  Level Chicago Center
Wed 09:41:35 AM 41.5422 -88.7000 270° West 436 502 36,000  Level Chicago Center
Wed 09:42:37 AM 41.5428 -88.8925 270° West 437 503 36,000  Level Chicago Center
Wed 09:43:39 AM 41.5431 -89.0528 270° West 435 501 36,000  Level Chicago Center
Wed 09:44:41 AM 41.5439 -89.2131 270° West 435 501 36,000  Level Chicago Center
Wed 09:45:43 AM 41.5453 -89.3731 271° West 433 498 36,000  Level Chicago Center
Wed 09:46:45 AM 41.5456 -89.5317 270° West 429 494 36,000  Level Chicago Center
Wed 09:47:46 AM 41.5433 -89.7033 269° West 431 496 36,000  Level Chicago Center
Wed 09:48:48 AM 41.5433 -89.8611 270° West 428 493 36,000  Level Chicago Center
Wed 09:49:50 AM 41.5422 -90.0203 270° West 429 494 36,000  Level Chicago Center
Wed 09:50:52 AM 41.5411 -90.2100 270° West 429 494 36,000  Level Chicago Center
Wed 09:51:54 AM 41.5386 -90.3733 269° West 440 506 36,000  Level Chicago Center
Wed 09:52:56 AM 41.5361 -90.5328 269° West 433 498 36,000  Level Chicago Center
Wed 09:53:58 AM 41.5347 -90.6936 269° West 432 497 36,000  Level Chicago Center
Wed 09:55:00 AM 41.5319 -90.8533 269° West 434 499 36,000  Level Chicago Center
Wed 09:56:02 AM 41.5294 -91.0136 269° West 434 499 36,000  Level Chicago Center
Wed 09:57:04 AM 41.5272 -91.2078 269° West 437 503 36,000  Level Chicago Center
Wed 09:58:06 AM 41.5236 -91.3686 268° West 437 503 36,000  Level Chicago Center
Wed 09:59:08 AM 41.5211 -91.5303 269° West 437 503 36,000  Level Chicago Center
Wed 10:00:10 AM 41.5175 -91.6914 268° West 436 502 36,000  Level Chicago Center
Wed 10:01:12 AM 41.5114 -91.8519 267° West 436 502 36,000  Level Chicago Center
Wed 10:02:13 AM 41.5053 -92.0444 268° West 436 502 36,000  Level Chicago Center
Wed 10:03:15 AM 41.4992 -92.2050 267° West 435 501 36,000  Level Chicago Center
Wed 10:04:17 AM 41.4933 -92.3667 267° West 436 502 36,000  Level Chicago Center
Wed 10:05:19 AM 41.4869 -92.5283 267° West 429 494 36,000 -48 Level Chicago Center
Wed 10:06:21 AM 41.4803 -92.6889 267° West 433 498 35,900 -414 Descending Chicago Center
Wed 10:07:15 AM 41.4739 -92.8528 267° West 439 505 35,200 -678 Descending Minneapolis Center
Wed 10:08:16 AM 41.4672 -93.0111 267° West 436 502 34,600 -590 Descending Minneapolis Center
Wed 10:09:17 AM 41.4611 -93.1689 267° West 433 498 34,000 -293 Descending Minneapolis Center
Wed 10:10:19 AM 41.4558 -93.3267 267° West 432 497 34,000  Level Minneapolis Center
Wed 10:11:20 AM 41.4500 -93.4831 267° West 430 495 34,000  Level Minneapolis Center
Wed 10:12:21 AM 41.4456 -93.6406 268° West 429 494 34,000  Level Minneapolis Center
Wed 10:13:23 AM 41.4414 -93.8344 268° West 434 499 34,000  Level Minneapolis Center
Wed 10:14:24 AM 41.4378 -93.9922 268° West 434 499 34,000  Level Minneapolis Center
Wed 10:15:26 AM 41.4342 -94.1517 268° West 434 499 34,000 -683 Level Minneapolis Center
Wed 10:16:27 AM 41.4281 -94.3169 267° West 436 502 32,600 -2,293 Descending Minneapolis Center
Wed 10:17:29 AM 41.4269 -94.4722 270° West 425 489 29,300 -3,268 Descending Minneapolis Center
Wed 10:18:30 AM 41.4278 -94.6317 270° West 428 493 25,900 -3,333 Descending Minneapolis Center
Wed 10:19:44 AM 41.4458 -94.8200 277° West 429 494 21,800 -3,393 Descending Minneapolis Center
Wed 10:20:32 AM 41.4878 -94.9672 291° West 399 459 19,000 -3,071 Descending Minneapolis Center
Wed 10:21:08 AM 41.5044 -95.0517 285° West 390 449 17,500 -2,640 Descending Minneapolis Center
Wed 10:21:47 AM 41.5119 -95.1269 278° West 390 449 15,700 -2,776 Descending Minneapolis Center
Wed 10:22:15 AM 41.5275 -95.1961 287° West 365 420 14,400 -2,419 Descending Minneapolis Center
Wed 10:22:49 AM 41.4925 -95.2408 224° Southwest 358 412 13,200 -2,066 Descending Minneapolis Center
Wed 10:23:16 AM 41.4644 -95.2822 228° Southwest 325 374 12,300 -1,574 Descending Minneapolis Center
Wed 10:23:50 AM 41.4175 -95.3097 204° Southwest 339 390 11,600 -1,200 Descending Minneapolis Center
Wed 10:24:16 AM 41.3978 -95.3433 232° Southwest 288 331 11,100 -1,065 Descending Minneapolis Center
Wed 10:24:52 AM 41.3556 -95.3703 206° Southwest 309 356 10,500 -1,770 Descending Minneapolis Center
Wed 10:25:17 AM 41.3389 -95.3981 231° Southwest 237 273 9,300 -2,754 Descending Minneapolis Center
Wed 10:25:53 AM 41.3031 -95.4203 205° Southwest 266 306 7,700 -3,148 Descending Minneapolis Center
Wed 10:26:18 AM 41.2836 -95.4464 225° Southwest 232 267 6,100 -2,557 Descending Minneapolis Center
Wed 10:26:54 AM 41.2475 -95.4719 208° Southwest 248 285 5,100 -1,500 Descending Minneapolis Center
Wed 10:27:18 AM 41.2228 -95.5067 227° Southwest 255 293 4,600 -1,258 Descending Minneapolis Center
Wed 10:27:56 AM 41.1914 -95.5314 211° Southwest 249 287 3,800 -1,475 Descending Minneapolis Center
Wed 10:28:19 AM 41.1639 -95.5608 219° Southwest 261 300 3,100 -787 Descending Minneapolis Center
Wed 10:28:57 AM 41.1325 -95.5847 210° Southwest 253 291 3,000 -111 Descending Minneapolis Center
Wed 10:29:13 AM 41.1164 -95.5997 215° Southwest 238 274 3,000  Level Minneapolis Center
Wed 10:29:59 AM 41.0825 -95.6389 221° Southwest 249 287 3,000  Level Minneapolis Center
Wed 10:30:14 AM 41.0892 -95.6639 289° West 210 242 3,000  Level Minneapolis Center
Wed 10:31:00 AM 41.1017 -95.7014 294° West 206 237 3,000  Level Minneapolis Center
Wed 10:31:20 AM 41.1244 -95.7178 332° Northwest 153 176 3,000  Level Minneapolis Center
Wed 10:32:02 AM 41.1469 -95.7425 320° Northwest 176 203 3,000  Level Minneapolis Center
Wed 10:32:27 AM 41.1625 -95.7575 324° Northwest 155 178 3,000  Level Minneapolis Center
Wed 10:33:03 AM 41.1817 -95.7750 326° Northwest 164 189 3,000  Level Minneapolis Center
Wed 10:33:22 AM 41.1939 -95.7872 323° Northwest 154 177 3,000  Level Minneapolis Center

Login

Don't have an account? Register now (free) for customized features, flight alerts, and more!